createdAt,value
2019-03-31T00:00:51.105Z,0.00
2019-03-31T00:01:51.088Z,0.00
2019-03-31T00:02:51.361Z,0.00
2019-03-31T00:03:51.041Z,0.00
2019-03-31T00:05:51.027Z,0.00
2019-03-31T00:07:51.074Z,0.00
2019-03-31T00:08:51.629Z,0.00
2019-03-31T00:09:51.519Z,0.00
2019-03-31T00:10:50.887Z,0.00
2019-03-31T00:11:50.872Z,0.00
2019-03-31T00:12:50.848Z,0.00
2019-03-31T00:14:50.795Z,0.00
2019-03-31T00:15:50.782Z,0.00
2019-03-31T00:16:52.640Z,0.00
2019-03-31T00:17:50.833Z,0.00
2019-03-31T00:18:50.822Z,0.00
2019-03-31T00:19:50.685Z,0.00
2019-03-31T00:20:52.162Z,0.00
2019-03-31T00:21:50.745Z,0.00
2019-03-31T00:22:50.621Z,0.00
2019-03-31T00:24:53.427Z,0.00
2019-03-31T00:25:50.656Z,0.00
2019-03-31T00:26:50.549Z,0.00
2019-03-31T00:27:50.508Z,0.00
2019-03-31T00:30:50.450Z,0.00
2019-03-31T00:31:50.727Z,0.00
2019-03-31T00:32:50.412Z,0.00
2019-03-31T00:33:50.384Z,0.00
2019-03-31T00:34:50.359Z,0.00
2019-03-31T00:35:50.372Z,0.00
2019-03-31T00:36:50.316Z,0.00
2019-03-31T00:37:50.287Z,0.00
2019-03-31T00:38:50.667Z,0.00
2019-03-31T00:39:50.242Z,0.00
2019-03-31T00:40:50.229Z,0.00
2019-03-31T00:41:50.218Z,0.00
2019-03-31T00:42:50.179Z,0.00
2019-03-31T00:43:50.171Z,0.00
2019-03-31T00:44:50.147Z,0.00
2019-03-31T00:45:50.428Z,0.00
2019-03-31T00:46:50.091Z,0.00
2019-03-31T00:47:50.281Z,0.00
2019-03-31T00:48:50.054Z,0.00
2019-03-31T00:49:50.036Z,0.00
2019-03-31T00:50:50.060Z,0.00
2019-03-31T00:51:50.283Z,0.00
2019-03-31T00:53:50.031Z,0.00
2019-03-31T00:54:50.034Z,0.00
2019-03-31T00:55:49.892Z,0.00
2019-03-31T00:56:51.306Z,0.00
2019-03-31T00:57:50.094Z,0.00
2019-03-31T00:58:50.226Z,0.00
2019-03-31T01:00:49.875Z,0.00
2019-03-31T01:01:49.761Z,0.00
2019-03-31T01:02:50.032Z,0.00
2019-03-31T01:03:50.070Z,0.00
2019-03-31T01:05:49.767Z,0.00
2019-03-31T01:06:49.843Z,0.00
2019-03-31T01:07:49.622Z,0.00
2019-03-31T01:08:49.603Z,0.00
2019-03-31T01:09:49.875Z,0.00
2019-03-31T01:10:49.558Z,0.00
2019-03-31T01:13:49.483Z,0.00
2019-03-31T01:14:49.461Z,0.00
2019-03-31T01:16:49.715Z,0.00
2019-03-31T01:17:49.506Z,0.00
2019-03-31T01:20:49.329Z,0.00
2019-03-31T01:21:49.304Z,0.00
2019-03-31T01:22:49.587Z,0.00
2019-03-31T01:23:49.262Z,0.00
2019-03-31T01:24:49.235Z,0.00
2019-03-31T01:25:49.221Z,0.00
2019-03-31T01:26:49.198Z,0.00
2019-03-31T01:27:49.261Z,0.00
2019-03-31T01:28:49.151Z,0.00
2019-03-31T01:29:49.444Z,0.00
2019-03-31T01:30:49.100Z,0.00
2019-03-31T01:31:50.586Z,0.00
2019-03-31T01:32:49.156Z,0.00
2019-03-31T01:33:49.226Z,0.00
2019-03-31T01:34:49.729Z,0.00
2019-03-31T01:35:49.086Z,0.00
2019-03-31T01:37:49.271Z,0.00
2019-03-31T01:38:48.982Z,0.00
2019-03-31T01:39:48.888Z,0.00
2019-03-31T01:40:48.884Z,0.00
2019-03-31T01:41:48.848Z,0.00
2019-03-31T01:43:48.803Z,0.00
2019-03-31T01:44:49.075Z,0.00
2019-03-31T01:45:48.761Z,0.00
2019-03-31T01:46:48.730Z,0.00
2019-03-31T01:47:49.019Z,0.00
2019-03-31T01:48:48.785Z,0.00
2019-03-31T01:49:48.660Z,0.00
2019-03-31T01:50:48.648Z,0.00
2019-03-31T01:51:48.935Z,0.00
2019-03-31T01:52:49.296Z,0.00
2019-03-31T01:53:48.576Z,0.00
2019-03-31T01:54:48.685Z,0.00
2019-03-31T01:56:48.506Z,0.00
2019-03-31T01:57:48.490Z,0.00
2019-03-31T01:58:48.757Z,0.00
2019-03-31T01:59:48.429Z,0.00
2019-03-31T02:00:48.407Z,0.00
2019-03-31T02:01:48.585Z,0.00
2019-03-31T02:02:48.463Z,0.00
2019-03-31T02:03:48.349Z,0.00
2019-03-31T02:04:48.420Z,0.00
2019-03-31T02:05:48.595Z,0.00
2019-03-31T02:06:48.278Z,0.00
2019-03-31T02:08:48.244Z,0.00
2019-03-31T02:09:48.205Z,0.00
2019-03-31T02:10:48.276Z,0.00
2019-03-31T02:11:48.401Z,0.00
2019-03-31T02:12:48.125Z,0.00
2019-03-31T02:13:48.141Z,0.00
2019-03-31T02:14:48.131Z,0.00
2019-03-31T02:15:48.060Z,0.00
2019-03-31T02:16:48.037Z,0.00
2019-03-31T02:17:48.311Z,0.00
2019-03-31T02:18:47.986Z,0.00
2019-03-31T02:19:47.980Z,0.00
2019-03-31T02:20:47.943Z,0.00
2019-03-31T02:21:47.976Z,0.00
2019-03-31T02:22:47.898Z,0.00
2019-03-31T02:23:48.126Z,0.00
2019-03-31T02:25:47.926Z,0.00
2019-03-31T02:26:48.102Z,0.00
2019-03-31T02:27:47.783Z,0.00
2019-03-31T02:28:47.753Z,0.00
2019-03-31T02:29:48.037Z,0.00
2019-03-31T02:30:47.815Z,0.00
2019-03-31T02:31:47.691Z,0.00
2019-03-31T02:32:47.660Z,0.00
2019-03-31T02:33:47.739Z,0.00
2019-03-31T02:34:47.926Z,0.00
2019-03-31T02:35:47.891Z,0.00
2019-03-31T02:36:47.650Z,0.00
2019-03-31T02:37:47.654Z,0.00
2019-03-31T02:38:47.636Z,0.00
2019-03-31T02:40:47.500Z,0.00
2019-03-31T02:41:47.763Z,0.00
2019-03-31T02:42:47.537Z,0.00
2019-03-31T02:43:47.407Z,0.00
2019-03-31T02:44:47.480Z,0.00
2019-03-31T02:45:47.357Z,0.00
2019-03-31T02:46:47.472Z,0.00
2019-03-31T02:47:47.612Z,0.00
2019-03-31T02:48:47.351Z,0.00
2019-03-31T02:49:47.298Z,0.00
2019-03-31T02:51:47.336Z,0.00
2019-03-31T02:52:47.195Z,0.00
2019-03-31T02:53:47.171Z,0.00
2019-03-31T02:55:47.491Z,0.00
2019-03-31T02:56:47.204Z,0.00
2019-03-31T02:58:47.463Z,0.00
2019-03-31T02:59:47.333Z,0.00
2019-03-31T03:00:47.105Z,0.00
2019-03-31T03:01:46.987Z,0.00
2019-03-31T03:03:48.063Z,0.00
2019-03-31T03:04:46.915Z,0.00
2019-03-31T03:05:46.895Z,0.00
2019-03-31T03:06:46.979Z,0.00
2019-03-31T03:07:46.853Z,0.00
2019-03-31T03:08:46.831Z,0.00
2019-03-31T03:09:46.810Z,0.00
2019-03-31T03:10:47.183Z,0.00
2019-03-31T03:11:46.765Z,0.00
2019-03-31T03:13:46.718Z,0.00
2019-03-31T03:14:47.614Z,0.00
2019-03-31T03:15:46.665Z,0.00
2019-03-31T03:16:46.654Z,0.00
2019-03-31T03:17:46.919Z,0.00
2019-03-31T03:18:46.599Z,0.00
2019-03-31T03:19:46.673Z,0.00
2019-03-31T03:20:46.600Z,0.00
2019-03-31T03:21:46.637Z,0.00
2019-03-31T03:22:46.504Z,0.00
2019-03-31T03:23:46.487Z,0.00
2019-03-31T03:24:46.765Z,0.00
2019-03-31T03:26:46.473Z,0.00
2019-03-31T03:27:46.505Z,0.00
2019-03-31T03:28:46.381Z,0.00
2019-03-31T03:29:46.414Z,0.00
2019-03-31T03:30:46.430Z,0.00
2019-03-31T03:31:46.612Z,0.00
2019-03-31T03:33:12.425Z,0.00
2019-03-31T03:33:46.251Z,0.00
2019-03-31T03:34:46.278Z,0.00
2019-03-31T03:35:46.426Z,0.00
2019-03-31T03:36:46.189Z,0.00
2019-03-31T03:37:46.467Z,0.00
2019-03-31T03:38:46.146Z,0.00
2019-03-31T03:40:46.088Z,0.00
2019-03-31T03:41:46.189Z,0.00
2019-03-31T03:42:46.061Z,0.00
2019-03-31T03:43:55.389Z,0.00
2019-03-31T03:44:46.101Z,0.00
2019-03-31T03:45:46.035Z,0.00
2019-03-31T03:47:45.946Z,0.00
2019-03-31T03:49:45.993Z,0.00
2019-03-31T03:50:46.213Z,0.00
2019-03-31T03:51:46.141Z,0.00
2019-03-31T03:52:45.822Z,0.00
2019-03-31T03:54:45.769Z,0.00
2019-03-31T03:56:45.853Z,0.00
2019-03-31T03:57:46.011Z,0.00
2019-03-31T03:58:45.801Z,0.00
2019-03-31T04:01:45.612Z,0.00
2019-03-31T04:02:45.691Z,0.00
2019-03-31T04:03:45.869Z,0.00
2019-03-31T04:05:45.635Z,0.00
2019-03-31T04:08:45.549Z,0.00
2019-03-31T04:10:45.710Z,0.00
2019-03-31T04:11:45.387Z,0.00
2019-03-31T04:12:45.374Z,0.00
2019-03-31T04:13:45.344Z,0.00
2019-03-31T04:14:45.421Z,0.00
2019-03-31T04:15:45.304Z,0.00
2019-03-31T04:16:45.574Z,0.00
2019-03-31T04:17:45.549Z,0.00
2019-03-31T04:18:45.272Z,0.00
2019-03-31T04:19:45.209Z,0.00
2019-03-31T04:20:45.185Z,0.00
2019-03-31T04:21:45.153Z,0.00
2019-03-31T04:22:45.236Z,0.00
2019-03-31T04:23:45.126Z,0.00
2019-03-31T04:24:45.421Z,0.00
2019-03-31T04:25:45.064Z,0.00
2019-03-31T04:26:45.039Z,0.00
2019-03-31T04:27:45.021Z,0.00
2019-03-31T04:28:45.169Z,0.00
2019-03-31T04:29:44.968Z,0.00
2019-03-31T04:30:44.951Z,0.00
2019-03-31T04:31:45.277Z,0.00
2019-03-31T04:32:44.911Z,0.00
2019-03-31T04:33:51.498Z,0.00
2019-03-31T04:34:44.856Z,0.00
2019-03-31T04:35:44.832Z,0.00
2019-03-31T04:36:44.822Z,0.00
2019-03-31T04:37:45.087Z,0.00
2019-03-31T04:38:45.776Z,0.00
2019-03-31T04:39:44.744Z,0.00
2019-03-31T04:40:44.717Z,0.00
2019-03-31T04:41:44.792Z,0.00
2019-03-31T04:43:44.760Z,0.00
2019-03-31T04:45:44.916Z,0.00
2019-03-31T04:46:44.890Z,0.00
2019-03-31T04:47:44.582Z,0.00
2019-03-31T04:48:44.551Z,0.00
2019-03-31T04:49:44.566Z,0.00
2019-03-31T04:50:44.486Z,5.63
2019-03-31T04:51:44.704Z,5.63
2019-03-31T04:52:44.736Z,5.63
2019-03-31T04:53:44.525Z,5.63
2019-03-31T04:54:44.702Z,5.63
2019-03-31T04:55:44.369Z,5.63
2019-03-31T04:56:44.545Z,5.63
2019-03-31T04:57:44.324Z,5.63
2019-03-31T04:58:44.598Z,11.25
2019-03-31T04:59:44.277Z,11.25
2019-03-31T05:01:44.281Z,11.25
2019-03-31T05:02:44.208Z,11.25
2019-03-31T05:03:44.181Z,11.25
2019-03-31T05:04:44.460Z,16.88
2019-03-31T05:06:44.113Z,16.88
2019-03-31T05:07:44.090Z,16.88
2019-03-31T05:08:44.204Z,22.50
2019-03-31T05:09:44.147Z,22.50
2019-03-31T05:10:45.059Z,22.50
2019-03-31T05:11:43.999Z,22.50
2019-03-31T05:12:43.970Z,22.50
2019-03-31T05:13:43.949Z,28.13
2019-03-31T05:14:43.946Z,28.13
2019-03-31T05:15:43.903Z,33.75
2019-03-31T05:16:44.234Z,33.75
2019-03-31T05:18:43.838Z,39.38
2019-03-31T05:19:43.806Z,39.38
2019-03-31T05:20:43.787Z,39.38
2019-03-31T05:22:43.743Z,45.00
2019-03-31T05:23:43.965Z,39.38
2019-03-31T05:25:43.769Z,45.00
2019-03-31T05:26:43.671Z,45.00
2019-03-31T05:27:43.779Z,45.00
2019-03-31T05:28:44.328Z,45.00
2019-03-31T05:29:43.938Z,45.00
2019-03-31T05:30:43.690Z,50.63
2019-03-31T05:31:43.540Z,50.63
2019-03-31T05:32:43.541Z,50.63
2019-03-31T05:33:43.479Z,56.25
2019-03-31T05:34:43.459Z,56.25
2019-03-31T05:36:43.760Z,56.25
2019-03-31T05:37:50.716Z,56.25
2019-03-31T05:38:43.467Z,56.25
2019-03-31T05:39:43.342Z,61.88
2019-03-31T05:40:43.319Z,61.88
2019-03-31T05:41:43.394Z,56.25
2019-03-31T05:42:43.376Z,50.63
2019-03-31T05:43:43.657Z,45.00
2019-03-31T05:44:43.926Z,39.38
2019-03-31T05:45:43.308Z,39.38
2019-03-31T05:46:43.183Z,39.38
2019-03-31T05:47:43.179Z,39.38
2019-03-31T05:48:43.173Z,39.38
2019-03-31T05:49:43.225Z,39.38
2019-03-31T05:50:43.829Z,39.38
2019-03-31T05:51:43.179Z,45.00
2019-03-31T05:52:43.044Z,45.00
2019-03-31T05:53:43.180Z,50.63
2019-03-31T05:54:42.998Z,45.00
2019-03-31T05:55:42.983Z,39.38
2019-03-31T05:57:43.120Z,39.38
2019-03-31T05:58:43.355Z,45.00
2019-03-31T05:59:42.982Z,50.63
2019-03-31T06:01:42.836Z,67.50
2019-03-31T06:02:42.819Z,73.13
2019-03-31T06:04:42.781Z,78.75
2019-03-31T06:05:43.083Z,84.38
2019-03-31T06:06:43.034Z,84.38
2019-03-31T06:07:42.705Z,84.38
2019-03-31T06:08:43.392Z,90.00
2019-03-31T06:09:42.663Z,95.63
2019-03-31T06:10:42.635Z,95.63
2019-03-31T06:11:42.621Z,95.63
2019-03-31T06:14:42.945Z,101.25
2019-03-31T06:15:42.521Z,112.50
2019-03-31T06:16:42.509Z,118.13
2019-03-31T06:18:42.750Z,123.75
2019-03-31T06:21:42.687Z,140.63
2019-03-31T06:22:42.420Z,146.25
2019-03-31T06:23:42.421Z,151.88
2019-03-31T06:24:42.427Z,157.50
2019-03-31T06:25:42.526Z,168.75
2019-03-31T06:26:42.274Z,180.00
2019-03-31T06:27:42.658Z,185.63
2019-03-31T06:28:42.532Z,180.00
2019-03-31T06:29:42.209Z,174.38
2019-03-31T06:30:42.192Z,168.75
2019-03-31T06:31:42.180Z,168.75
2019-03-31T06:33:42.429Z,180.00
2019-03-31T06:34:47.679Z,185.63
2019-03-31T06:35:42.166Z,185.63
2019-03-31T06:36:42.065Z,202.50
2019-03-31T06:37:42.191Z,213.75
2019-03-31T06:38:42.181Z,219.38
2019-03-31T06:39:42.314Z,230.63
2019-03-31T06:40:42.036Z,241.88
2019-03-31T06:41:42.130Z,230.63
2019-03-31T06:43:42.006Z,208.13
2019-03-31T06:44:42.348Z,168.75
2019-03-31T06:45:42.155Z,174.38
2019-03-31T06:46:41.835Z,174.38
2019-03-31T06:48:41.786Z,208.13
2019-03-31T06:49:42.494Z,258.75
2019-03-31T06:50:41.844Z,286.88
2019-03-31T06:51:42.139Z,286.88
2019-03-31T06:52:41.806Z,241.88
2019-03-31T06:53:41.736Z,258.75
2019-03-31T06:54:41.667Z,281.25
2019-03-31T06:55:41.645Z,292.50
2019-03-31T06:56:41.714Z,298.13
2019-03-31T06:57:42.102Z,343.13
2019-03-31T06:58:41.673Z,258.75
2019-03-31T07:00:41.833Z,270.00
2019-03-31T07:02:41.558Z,253.13
2019-03-31T07:03:41.476Z,303.75
2019-03-31T07:04:41.776Z,264.38
2019-03-31T07:05:41.439Z,202.50
2019-03-31T07:06:41.405Z,191.25
2019-03-31T07:07:41.398Z,230.63
2019-03-31T07:09:41.354Z,275.63
2019-03-31T07:10:41.524Z,348.75
2019-03-31T07:11:41.602Z,320.63
2019-03-31T07:12:41.290Z,298.13
2019-03-31T07:13:41.288Z,281.25
2019-03-31T07:14:41.335Z,253.13
2019-03-31T07:15:41.216Z,241.88
2019-03-31T07:16:41.271Z,213.75
2019-03-31T07:18:42.360Z,185.63
2019-03-31T07:19:41.427Z,163.13
2019-03-31T07:20:41.122Z,157.50
2019-03-31T07:21:41.188Z,163.13
2019-03-31T07:22:41.897Z,157.50
2019-03-31T07:24:41.369Z,168.75
2019-03-31T07:25:41.019Z,213.75
2019-03-31T07:27:41.361Z,303.75
2019-03-31T07:28:40.941Z,292.50
2019-03-31T07:29:40.919Z,315.00
2019-03-31T07:31:41.028Z,354.38
2019-03-31T07:33:40.933Z,337.50
2019-03-31T07:35:41.322Z,303.75
2019-03-31T07:36:40.781Z,326.25
2019-03-31T07:37:47.041Z,348.75
2019-03-31T07:38:40.909Z,360.00
2019-03-31T07:39:40.892Z,360.00
2019-03-31T07:40:40.764Z,416.25
2019-03-31T07:41:40.849Z,472.50
2019-03-31T07:42:40.956Z,382.50
2019-03-31T07:43:40.662Z,292.50
2019-03-31T07:44:40.622Z,275.63
2019-03-31T07:45:40.662Z,286.88
2019-03-31T07:46:40.761Z,298.13
2019-03-31T07:47:40.602Z,337.50
2019-03-31T07:48:40.954Z,348.75
2019-03-31T07:50:40.618Z,292.50
2019-03-31T07:51:40.473Z,281.25
2019-03-31T07:52:40.552Z,309.38
2019-03-31T07:53:40.431Z,298.13
2019-03-31T07:54:40.805Z,331.88
2019-03-31T07:55:40.400Z,433.13
2019-03-31T07:56:40.390Z,500.63
2019-03-31T07:57:40.385Z,444.38
2019-03-31T07:58:40.363Z,376.88
2019-03-31T07:59:40.317Z,315.00
2019-03-31T08:01:40.585Z,303.75
2019-03-31T08:03:40.369Z,258.75
2019-03-31T08:04:40.302Z,258.75
2019-03-31T08:05:40.207Z,281.25
2019-03-31T08:06:40.361Z,303.75
2019-03-31T08:07:40.481Z,303.75
2019-03-31T08:08:40.154Z,337.50
2019-03-31T08:09:40.263Z,371.25
2019-03-31T08:11:40.106Z,399.38
2019-03-31T08:12:40.099Z,376.88
2019-03-31T08:13:40.397Z,365.63
2019-03-31T08:14:40.053Z,371.25
2019-03-31T08:15:40.046Z,371.25
2019-03-31T08:16:40.088Z,371.25
2019-03-31T08:17:42.783Z,393.75
2019-03-31T08:18:40.081Z,399.38
2019-03-31T08:20:39.969Z,433.13
2019-03-31T08:21:40.041Z,461.25
2019-03-31T08:22:40.070Z,472.50
2019-03-31T08:25:39.905Z,573.75
2019-03-31T08:26:40.200Z,556.88
2019-03-31T08:27:39.848Z,596.25
2019-03-31T08:28:39.832Z,596.25
2019-03-31T08:29:39.917Z,607.50
2019-03-31T08:30:39.976Z,607.50
2019-03-31T08:31:39.817Z,556.88
2019-03-31T08:32:39.871Z,573.75
2019-03-31T08:33:40.384Z,585.00
2019-03-31T08:34:39.881Z,596.25
2019-03-31T08:38:39.761Z,568.13
2019-03-31T08:39:39.666Z,545.63
2019-03-31T08:40:39.951Z,534.38
2019-03-31T08:41:39.692Z,528.75
2019-03-31T08:42:39.704Z,568.13
2019-03-31T08:43:39.628Z,556.88
2019-03-31T08:44:39.588Z,517.50
2019-03-31T08:45:39.699Z,483.75
2019-03-31T08:46:39.573Z,466.88
2019-03-31T08:47:39.855Z,478.13
2019-03-31T08:48:39.549Z,466.88
2019-03-31T08:49:39.627Z,466.88
2019-03-31T08:50:39.503Z,472.50
2019-03-31T08:51:39.663Z,478.13
2019-03-31T08:52:41.189Z,478.13
2019-03-31T08:53:39.793Z,438.75
2019-03-31T08:54:39.840Z,405.00
2019-03-31T08:55:39.605Z,405.00
2019-03-31T08:56:39.416Z,405.00
2019-03-31T08:58:39.389Z,438.75
2019-03-31T08:59:39.475Z,427.50
2019-03-31T09:00:39.367Z,421.88
2019-03-31T09:01:39.774Z,495.00
2019-03-31T09:02:39.325Z,540.00
2019-03-31T09:03:39.442Z,562.50
2019-03-31T09:04:39.347Z,579.38
2019-03-31T09:06:39.318Z,607.50
2019-03-31T09:08:39.528Z,596.25
2019-03-31T09:09:39.215Z,618.75
2019-03-31T09:10:39.197Z,691.88
2019-03-31T09:11:39.392Z,748.13
2019-03-31T09:12:39.165Z,748.13
2019-03-31T09:13:39.292Z,776.25
2019-03-31T09:14:39.136Z,703.13
2019-03-31T09:15:39.804Z,708.75
2019-03-31T09:16:39.208Z,703.13
2019-03-31T09:17:39.110Z,956.25
2019-03-31T09:18:39.204Z,1051.88
2019-03-31T09:19:39.096Z,1074.38
2019-03-31T09:20:39.213Z,1023.75
2019-03-31T09:22:39.477Z,691.88
2019-03-31T09:24:39.028Z,686.25
2019-03-31T09:25:39.158Z,725.63
2019-03-31T09:26:39.199Z,748.13
2019-03-31T09:27:39.203Z,922.50
2019-03-31T09:28:39.326Z,933.75
2019-03-31T09:29:39.122Z,939.38
2019-03-31T09:31:39.108Z,742.50
2019-03-31T09:32:38.949Z,556.88
2019-03-31T09:33:39.559Z,573.75
2019-03-31T09:34:39.184Z,646.88
2019-03-31T09:35:38.925Z,675.00
2019-03-31T09:36:38.878Z,646.88
2019-03-31T09:37:38.861Z,686.25
2019-03-31T09:40:39.204Z,624.38
2019-03-31T09:41:38.798Z,731.25
2019-03-31T09:43:38.923Z,894.38
2019-03-31T09:44:38.753Z,658.13
2019-03-31T09:45:38.779Z,624.38
2019-03-31T09:47:39.049Z,641.25
2019-03-31T09:48:38.793Z,2716.88
2019-03-31T09:49:38.679Z,3245.63
2019-03-31T09:50:38.699Z,3600.00
2019-03-31T09:51:38.942Z,3656.25
2019-03-31T09:52:38.771Z,3785.63
2019-03-31T09:53:39.132Z,3915.00
2019-03-31T09:54:38.697Z,3982.50
2019-03-31T09:56:38.624Z,4128.75
2019-03-31T09:57:38.688Z,2615.63
2019-03-31T09:58:38.768Z,911.25
2019-03-31T09:59:38.945Z,3476.25
2019-03-31T10:00:38.946Z,4190.63
2019-03-31T10:01:38.513Z,3875.63
2019-03-31T10:02:38.492Z,703.13
2019-03-31T10:03:38.481Z,652.50
2019-03-31T10:04:38.481Z,579.38
2019-03-31T10:05:38.618Z,573.75
2019-03-31T10:06:38.549Z,590.63
2019-03-31T10:07:38.831Z,455.63
2019-03-31T10:08:38.425Z,410.63
2019-03-31T10:10:38.478Z,551.25
2019-03-31T10:11:38.394Z,607.50
2019-03-31T10:13:38.452Z,933.75
2019-03-31T10:14:38.714Z,770.63
2019-03-31T10:15:39.829Z,691.88
2019-03-31T10:16:38.490Z,843.75
2019-03-31T10:17:38.375Z,3605.63
2019-03-31T10:18:38.412Z,866.25
2019-03-31T10:21:38.368Z,3195.00
2019-03-31T10:22:38.583Z,2188.13
2019-03-31T10:23:38.293Z,748.13
2019-03-31T10:24:38.191Z,596.25
2019-03-31T10:25:38.425Z,579.38
2019-03-31T10:26:38.182Z,556.88
2019-03-31T10:27:38.192Z,641.25
2019-03-31T10:28:38.365Z,2930.63
2019-03-31T10:29:38.560Z,3633.75
2019-03-31T10:30:38.161Z,3600.00
2019-03-31T10:31:38.434Z,3611.25
2019-03-31T10:32:38.184Z,3526.88
2019-03-31T10:33:38.174Z,3498.75
2019-03-31T10:34:38.147Z,3189.38
2019-03-31T10:37:38.037Z,3633.75
2019-03-31T10:38:38.298Z,3414.38
2019-03-31T10:39:37.990Z,3470.63
2019-03-31T10:40:38.022Z,3740.63
2019-03-31T10:41:38.091Z,3296.25
2019-03-31T10:42:37.949Z,1175.63
2019-03-31T10:43:38.222Z,3931.88
2019-03-31T10:44:38.181Z,3684.38
2019-03-31T10:45:38.505Z,2002.50
2019-03-31T10:46:37.990Z,894.38
2019-03-31T10:47:38.179Z,770.63
2019-03-31T10:48:38.095Z,742.50
2019-03-31T10:49:37.975Z,720.00
2019-03-31T10:51:38.151Z,1906.88
2019-03-31T10:53:37.943Z,1293.75
2019-03-31T10:54:37.840Z,1378.13
2019-03-31T10:55:37.904Z,1006.88
2019-03-31T10:56:37.911Z,1035.00
2019-03-31T10:57:38.092Z,967.50
2019-03-31T11:01:37.737Z,1040.63
2019-03-31T11:02:37.724Z,1035.00
2019-03-31T11:03:38.011Z,1029.38
2019-03-31T11:04:37.698Z,1006.88
2019-03-31T11:05:37.991Z,1012.50
2019-03-31T11:06:37.677Z,984.38
2019-03-31T11:08:37.820Z,1063.13
2019-03-31T11:09:38.056Z,956.25
2019-03-31T11:10:37.691Z,1147.50
2019-03-31T11:11:37.637Z,1288.13
2019-03-31T11:12:37.914Z,1333.13
2019-03-31T11:15:37.685Z,2160.00
2019-03-31T11:17:37.911Z,2300.63
2019-03-31T11:18:37.666Z,2407.50
2019-03-31T11:19:37.608Z,2008.13
2019-03-31T11:20:37.551Z,1811.25
2019-03-31T11:21:40.311Z,1648.13
2019-03-31T11:22:37.568Z,1395.00
2019-03-31T11:23:37.937Z,1029.38
2019-03-31T11:24:37.613Z,1569.38
2019-03-31T11:25:37.604Z,1428.75
2019-03-31T11:26:37.503Z,1715.63
2019-03-31T11:27:37.592Z,2165.63
2019-03-31T11:28:37.528Z,1974.38
2019-03-31T11:29:37.776Z,1845.00
2019-03-31T11:30:37.632Z,2041.88
2019-03-31T11:31:37.837Z,2075.63
2019-03-31T11:32:37.533Z,2154.38
2019-03-31T11:33:37.432Z,2160.00
2019-03-31T11:34:37.445Z,2221.88
2019-03-31T11:35:37.405Z,1777.50
2019-03-31T11:36:37.693Z,1102.50
2019-03-31T11:37:37.376Z,1006.88
2019-03-31T11:38:37.377Z,990.00
2019-03-31T11:39:37.363Z,939.38
2019-03-31T11:40:37.335Z,984.38
2019-03-31T11:41:37.325Z,967.50
2019-03-31T11:44:37.304Z,928.13
2019-03-31T11:46:37.587Z,894.38
2019-03-31T11:47:37.607Z,883.13
2019-03-31T11:48:37.630Z,888.75
2019-03-31T11:49:37.962Z,888.75
2019-03-31T11:51:37.239Z,888.75
2019-03-31T11:52:37.245Z,911.25
2019-03-31T11:53:37.533Z,905.63
2019-03-31T11:55:37.206Z,506.25
2019-03-31T11:57:37.188Z,843.75
2019-03-31T12:01:37.480Z,793.13
2019-03-31T12:04:37.354Z,810.00
2019-03-31T12:05:37.136Z,781.88
2019-03-31T12:07:46.776Z,759.38
2019-03-31T12:08:37.515Z,765.00
2019-03-31T12:11:37.263Z,804.38
2019-03-31T12:14:37.350Z,804.38
2019-03-31T12:16:37.050Z,787.50
2019-03-31T12:17:37.026Z,770.63
2019-03-31T12:18:37.028Z,787.50
2019-03-31T12:20:37.121Z,759.38
2019-03-31T12:21:37.320Z,781.88
2019-03-31T12:23:37.019Z,838.13
2019-03-31T12:24:37.077Z,855.00
2019-03-31T12:25:37.195Z,843.75
2019-03-31T12:27:36.953Z,956.25
2019-03-31T12:29:37.369Z,1558.13
2019-03-31T12:31:36.918Z,2165.63
2019-03-31T12:32:38.649Z,2345.63
2019-03-31T12:33:36.903Z,2295.00
2019-03-31T12:34:37.062Z,2306.25
2019-03-31T12:37:42.778Z,2064.38
2019-03-31T12:38:36.866Z,1327.50
2019-03-31T12:40:36.912Z,551.25
2019-03-31T12:41:37.349Z,888.75
2019-03-31T12:42:37.598Z,877.50
2019-03-31T12:44:36.839Z,781.88
2019-03-31T12:45:36.861Z,776.25
2019-03-31T12:46:36.819Z,483.75
2019-03-31T12:47:37.117Z,540.00
2019-03-31T12:48:36.818Z,753.75
2019-03-31T12:52:46.671Z,725.63
2019-03-31T12:53:37.004Z,731.25
2019-03-31T12:55:36.736Z,669.38
2019-03-31T12:56:37.027Z,258.75
2019-03-31T12:58:36.921Z,691.88
2019-03-31T12:59:37.018Z,691.88
2019-03-31T13:00:36.701Z,691.88
2019-03-31T13:01:36.692Z,686.25
2019-03-31T13:02:37.773Z,686.25
2019-03-31T13:03:36.805Z,691.88
2019-03-31T13:04:36.881Z,686.25
2019-03-31T13:06:36.964Z,691.88
2019-03-31T13:07:36.650Z,686.25
2019-03-31T13:08:36.664Z,680.63
2019-03-31T13:09:36.628Z,675.00
2019-03-31T13:10:36.635Z,675.00
2019-03-31T13:12:36.806Z,675.00
2019-03-31T13:13:37.371Z,675.00
2019-03-31T13:14:36.661Z,675.00
2019-03-31T13:15:36.587Z,675.00
2019-03-31T13:16:36.812Z,669.38
2019-03-31T13:17:36.585Z,669.38
2019-03-31T13:19:36.956Z,675.00
2019-03-31T13:20:36.988Z,669.38
2019-03-31T13:21:37.033Z,669.38
2019-03-31T13:22:36.530Z,669.38
2019-03-31T13:23:36.826Z,669.38
2019-03-31T13:26:36.625Z,669.38
2019-03-31T13:31:36.891Z,663.75
2019-03-31T13:32:36.546Z,663.75
2019-03-31T13:33:36.626Z,663.75
2019-03-31T13:35:37.992Z,658.13
2019-03-31T13:36:36.432Z,663.75
2019-03-31T13:37:36.422Z,663.75
2019-03-31T13:38:36.739Z,663.75
2019-03-31T13:40:36.486Z,658.13
2019-03-31T13:41:36.474Z,663.75
2019-03-31T13:42:36.440Z,658.13
2019-03-31T13:46:37.040Z,658.13
2019-03-31T13:47:36.351Z,663.75
2019-03-31T13:48:36.407Z,663.75
2019-03-31T13:49:36.326Z,669.38
2019-03-31T13:51:36.654Z,663.75
2019-03-31T13:55:36.396Z,669.38
2019-03-31T13:56:37.246Z,669.38
2019-03-31T13:58:38.294Z,675.00
2019-03-31T13:59:36.282Z,669.38
2019-03-31T14:00:36.751Z,675.00
2019-03-31T14:01:36.410Z,675.00
2019-03-31T14:02:36.338Z,680.63
2019-03-31T14:03:37.083Z,680.63
2019-03-31T14:04:50.686Z,686.25
2019-03-31T14:06:36.668Z,697.50
2019-03-31T14:09:36.244Z,697.50
2019-03-31T14:10:36.932Z,697.50
2019-03-31T14:11:36.380Z,703.13
2019-03-31T14:12:36.469Z,697.50
2019-03-31T14:13:36.152Z,708.75
2019-03-31T14:14:36.149Z,714.38
2019-03-31T14:15:36.434Z,714.38
2019-03-31T14:18:36.406Z,708.75
2019-03-31T14:19:36.515Z,703.13
2019-03-31T14:20:36.216Z,703.13
2019-03-31T14:21:36.091Z,703.13
2019-03-31T14:23:36.088Z,708.75
2019-03-31T14:24:36.388Z,703.13
2019-03-31T14:26:36.051Z,691.88
2019-03-31T14:28:36.050Z,691.88
2019-03-31T14:29:36.043Z,708.75
2019-03-31T14:30:36.325Z,776.25
2019-03-31T14:31:36.170Z,849.38
2019-03-31T14:32:36.018Z,855.00
2019-03-31T14:35:38.028Z,849.38
2019-03-31T14:36:36.363Z,843.75
2019-03-31T14:37:36.011Z,832.50
2019-03-31T14:38:40.350Z,826.88
2019-03-31T14:39:36.105Z,821.25
2019-03-31T14:41:35.987Z,815.63
2019-03-31T14:42:36.227Z,804.38
2019-03-31T14:46:35.896Z,776.25
2019-03-31T14:48:35.879Z,776.25
2019-03-31T14:51:36.816Z,765.00
2019-03-31T14:53:35.829Z,781.88
2019-03-31T14:55:36.168Z,793.13
2019-03-31T14:56:36.102Z,793.13
2019-03-31T14:58:36.182Z,804.38
2019-03-31T14:59:35.856Z,821.25
2019-03-31T15:01:35.752Z,860.63
2019-03-31T15:02:35.778Z,871.88
2019-03-31T15:03:35.732Z,871.88
2019-03-31T15:04:35.829Z,855.00
2019-03-31T15:05:36.212Z,843.75
2019-03-31T15:06:35.821Z,832.50
2019-03-31T15:07:35.713Z,804.38
2019-03-31T15:08:36.124Z,770.63
2019-03-31T15:10:35.681Z,742.50
2019-03-31T15:11:35.684Z,759.38
2019-03-31T15:12:35.957Z,765.00
2019-03-31T15:13:35.733Z,742.50
2019-03-31T15:15:35.965Z,742.50
2019-03-31T15:16:35.730Z,742.50
2019-03-31T15:18:35.672Z,742.50
2019-03-31T15:19:35.902Z,731.25
2019-03-31T15:20:35.609Z,714.38
2019-03-31T15:21:43.920Z,691.88
2019-03-31T15:23:35.558Z,725.63
2019-03-31T15:24:35.591Z,720.00
2019-03-31T15:25:35.918Z,703.13
2019-03-31T15:27:35.613Z,686.25
2019-03-31T15:28:35.623Z,691.88
2019-03-31T15:29:35.516Z,680.63
2019-03-31T15:30:35.523Z,669.38
2019-03-31T15:31:35.484Z,675.00
2019-03-31T15:32:35.830Z,663.75
2019-03-31T15:35:37.732Z,630.00
2019-03-31T15:36:35.509Z,618.75
2019-03-31T15:38:35.522Z,635.63
2019-03-31T15:39:35.416Z,646.88
2019-03-31T15:40:35.485Z,635.63
2019-03-31T15:41:35.906Z,635.63
2019-03-31T15:42:35.417Z,630.00
2019-03-31T15:43:35.369Z,635.63
2019-03-31T15:44:35.435Z,635.63